»·PEaware :: N324PT KSNA-KLAX

N324PT :: KSNA-KLAX

FLIGHT INFORMATION

Flight Status: Arrived
Operator: Privately registered:
United States
More flights under this callsign
Pilot: Pedro T. (27113)
Aircraft: CESSNA 172 SKYHAWK
(C172)
More flights by this aircraft type
Origin: KSNA John Wayne-Orange Co
United States
Destination: KLAX Los Angeles Intl
United States
More flights between these airports :: More routes between these airports
Route: +
File this flight plan on PilotEdge
Remarks: CAT10
Altitude:
(Current/Filed)
2,400ft
Speed:
(Current/Filed)
0kts
Departed: 02-Dec-19 03:25 PM
Arrived: 02-Dec-19 03:43 PM
Distance/Time
Traveled:
30nm/0:18
Distance/Time
To Go:
Arrived

Flight Plot

Page will automatically refresh every two minutes.


Map Options




Map Legend


Flown Route
Filed Route
Departure Airport
Arrival Airport
Navaid (VOR, NDB)
Fix

Horizontal Profiles

Position Reports

Time Latitude Longitude Heading Altitude Ground
Speed
02-Dec-19 14:58 33.671911 -117.867338 205 60ft 0kts
02-Dec-19 14:59 33.671911 -117.867339 205 60ft 0kts
02-Dec-19 15:00 33.671819 -117.867594 300 60ft 0kts
02-Dec-19 15:01 33.672009 -117.868009 326 60ft 5kts
02-Dec-19 15:02 33.673826 -117.866644 26 60ft 12kts
02-Dec-19 15:03 33.677081 -117.864614 29 60ft 16kts
02-Dec-19 15:04 33.680007 -117.862733 26 60ft 7kts
02-Dec-19 15:05 33.680470 -117.861900 326 60ft 0kts
02-Dec-19 15:06 33.680470 -117.861900 326 60ft 0kts
02-Dec-19 15:07 33.680470 -117.861900 326 60ft 0kts
02-Dec-19 15:08 33.680470 -117.861900 326 60ft 0kts
02-Dec-19 15:09 33.680470 -117.861900 326 60ft 0kts
02-Dec-19 15:10 33.680470 -117.861900 326 60ft 0kts
02-Dec-19 15:11 33.680470 -117.861900 326 60ft 0kts
02-Dec-19 15:12 33.680470 -117.861900 326 60ft 0kts
02-Dec-19 15:13 33.680470 -117.861900 326 60ft 0kts
02-Dec-19 15:14 33.680470 -117.861900 326 60ft 0kts
02-Dec-19 15:15 33.680470 -117.861900 326 60ft 0kts
02-Dec-19 15:16 33.680470 -117.861900 326 60ft 0kts
02-Dec-19 15:17 33.680470 -117.861900 326 60ft 0kts
02-Dec-19 15:18 33.680470 -117.861900 326 60ft 0kts
02-Dec-19 15:19 33.680470 -117.861900 326 60ft 0kts
02-Dec-19 15:20 33.680470 -117.861900 326 60ft 0kts
02-Dec-19 15:21 33.680470 -117.861900 326 60ft 0kts
02-Dec-19 15:22 33.680664 -117.863089 297 60ft 0kts
02-Dec-19 15:23 33.680586 -117.863841 215 60ft 13kts
02-Dec-19 15:24 33.666583 -117.882587 253 678ft 95kts
02-Dec-19 15:25 33.660051 -117.913813 251 1581ft 97kts
02-Dec-19 15:26 33.653064 -117.948021 254 2174ft 112kts
02-Dec-19 15:27 33.664146 -117.980756 314 2517ft 128kts
02-Dec-19 15:28 33.689672 -118.009023 314 2514ft 129kts
02-Dec-19 15:29 33.715277 -118.037416 314 2627ft 122kts
02-Dec-19 15:30 33.740082 -118.064788 314 3016ft 129kts
02-Dec-19 15:31 33.765843 -118.093288 314 3012ft 130kts
02-Dec-19 15:32 33.792234 -118.121832 314 3011ft 127kts
02-Dec-19 15:33 33.817965 -118.149236 315 3011ft 124kts
02-Dec-19 15:34 33.843337 -118.176218 315 3011ft 122kts
02-Dec-19 15:35 33.867172 -118.201641 315 3012ft 121kts
02-Dec-19 15:36 33.883180 -118.233074 294 3013ft 118kts
02-Dec-19 15:37 33.896276 -118.270247 289 2965ft 120kts
02-Dec-19 15:38 33.906637 -118.300755 289 2542ft 105kts
02-Dec-19 15:39 33.926037 -118.322148 321 2568ft 108kts
02-Dec-19 15:40 33.939942 -118.344190 274 1710ft 94kts
02-Dec-19 15:41 33.938038 -118.375747 264 290ft 90kts
02-Dec-19 15:42 33.936131 -118.393624 222 103ft 20kts
02-Dec-19 15:43 33.935190 -118.393769 181 103ft 0kts
02-Dec-19 15:44 33.934140 -118.394431 0 104ft 0kts
02-Dec-19 15:45 33.934139 -118.394431 359 104ft 0kts
02-Dec-19 15:46 33.934139 -118.394431 0 104ft 0kts
02-Dec-19 15:47 33.934139 -118.394431 0 104ft 0kts

Navigation Log

Ident Type
Flight plan parsing failed, navigation log unavailable